Friday, October 19, 2018, 11:31 AM GMT
Back to Local

CYHZ, Halifax International Airport

Location: , , Canada Lat: 44.883
Local Time: 11:31 AM GMT (11:31 GMT) Lon: -63.5
Time Zone: GMT Elev: 475 ft

Show me the last for .
Show Decoded

2018-10-19 11:00 METAR CYHZ 191100Z 27008KT 15SM FEW032 M02/M05 A3004 RMK SC2 SLP180 =
2018-10-19 10:00 METAR CYHZ 191000Z 28010KT 15SM SCT032 M02/M05 A3003 RMK SC3 SLP176 =
2018-10-19 09:00 METAR CYHZ 190900Z 30010G17KT 15SM FEW031 M01/M05 A3001 RMK SC2 SLP170 =
2018-10-19 08:00 METAR CYHZ 190800Z 31011G16KT 15SM BKN035 M01/M05 A2999 RMK SC6 SLP163 =
2018-10-19 07:00 METAR CYHZ 190700Z 29012G17KT 15SM SCT033 M00/M06 A2997 RMK SC3 SLP156 =
2018-10-19 06:00 METAR CYHZ 190600Z 29009G15KT 15SM SKC M00/M06 A2996 RMK SLP152 =
2018-10-19 05:00 METAR CYHZ 190500Z 29012KT 15SM BKN045 01/M07 A2994 RMK SC5 SLP147 =
2018-10-19 04:00 METAR CYHZ 190400Z 30017G22KT 15SM SKC 00/M07 A2993 RMK SLP141 =
2018-10-19 03:00 METAR CYHZ 190300Z 32012G18KT 15SM SCT051 01/M07 A2992 RMK SC4 SLP139 =
2018-10-19 02:00 METAR CYHZ 190200Z 31018G30KT 15SM SCT043 01/M06 A2990 RMK SC3 SLP132 =
2018-10-19 01:00 METAR CYHZ 190100Z 31019G29KT 15SM FEW043 02/M05 A2987 RMK SC1 SLP123 =
2018-10-19 00:00 METAR CYHZ 190000Z 30022G32KT 15SM BKN053 02/M06 A2984 RMK SC5 SLP112 =
2018-10-18 23:00 METAR CYHZ 182300Z 31020G29KT 15SM SCT050 BKN120 03/M06 A2981 RMK SC3AC2 SLP100
                 =
2018-10-18 22:35 METAR CYHZ 182235Z 30018G30KT 15SM SCT040 BKN260 02/M05 A2979 RMK SC4CI1 SLP095
                 =
2018-10-18 22:00 METAR CYHZ 182200Z 30020G35KT 15SM -SHSN BKN040 OVC260 02/M04 A2978 RMK SC6CI2
                 CVCTV CLD EMBD PRESRR SLP090 =
2018-10-18 21:37 METAR CYHZ 182137Z 31019G30KT 15SM BKN030 OVC260 02/M04 A2976 RMK CU7CI1 SLP083
                 =
2018-10-18 21:00 METAR CYHZ 182100Z 30027G35KT 12SM -SHSN BKN033TCU 02/M03 A2973 RMK TCU7 SLP075
                 =
2018-10-18 20:14 METAR CYHZ 182014Z 29019G25KT 5SM -SHSN OVC027 02/M02 A2971 RMK CU8 TCU EMBDD
                 SLP068 =
2018-10-18 20:00 METAR CYHZ 182000Z 31022G30KT 2SM -SHSN OVC023TCU 02/M01 A2971 RMK SN5TCU3
                 SLP067 =
2018-10-18 19:00 METAR CYHZ 181900Z 30025G31KT 10SM -SHSNGS OVC033TCU 03/M02 A2968 RMK TCU8
                 SLP055 =
2018-10-18 18:31 METAR CYHZ 181831Z 28022G38KT 10SM -SHSNGS BKN025TCU 01/M01 A2968 RMK TCU7 VIS
                 LWR S-W PRESRR SLP056 =
2018-10-18 18:26 METAR CYHZ 181826Z 29025G38KT 1SM R14/P6000FT/N -SHSNGS VV007 03/M01 A2967 RMK
                 SN8 SLP053 =
2018-10-18 18:24 METAR CYHZ 181824Z 30027G38KT 2SM -SHSNGS OVC030TCU 03/M03 A2966 RMK SN6TCU2
                 SLP051 =
2018-10-18 18:00 METAR CYHZ 181800Z 30015G24KT 12SM -SHSNGS BKN030TCU 03/M02 A2966 RMK TCU7
                 SLP050 =
2018-10-18 17:44 METAR CYHZ 181744Z 29027G36KT 10SM -SHSN BKN025TCU 02/M02 A2966 RMK TCU7 SLP050
                 =
2018-10-18 17:36 METAR CYHZ 181736Z 30015G30KT 8SM -SHSNGS BKN025TCU 01/M01 A2966 RMK TCU7 SLP049
                 =
2018-10-18 17:27 METAR CYHZ 181727Z 32023G37KT 2 1/2SM -SHSN BKN023TCU 02/M01 A2966 RMK TCU7
                 SLP051 =
2018-10-18 17:00 METAR CYHZ 181700Z 28021G34KT 270V330 8SM -SHSN BKN028TCU 03/M02 A2965 RMK TCU7
                 SLP048 =
2018-10-18 16:11 METAR CYHZ 181611Z 30018G28KT 10SM -SHSN BKN038TCU 05/M03 A2965 RMK TCU7 SLP045
                 =
2018-10-18 16:00 METAR CYHZ 181600Z 28021G27KT 12SM BKN038TCU 05/M03 A2965 RMK TCU5 DIST SH ALQDS
                 SLP045 =
2018-10-18 15:00 METAR CYHZ 181500Z 29018G25KT 15SM BKN040 04/M03 A2965 RMK CU6 TCU ASOCTD DIST
                 SH E-W SLP047 =
2018-10-18 14:00 METAR CYHZ 181400Z 30021G31KT 15SM BKN035 04/M03 A2965 RMK CU5 SLP045 =
2018-10-18 13:00 METAR CYHZ 181300Z 30016G25KT 15SM SCT025 04/M01 A2965 RMK CU3 SLP045 =
2018-10-18 12:00 METAR CYHZ 181200Z 29017G28KT 15SM FEW015 SCT025 SCT110 03/01 A2963 RMK
                 CF1CU2AC1 SLP040 =

Support USWX by starting your Amazon purchase here.